Terminal Aerodrome Forecast
Issued by NWS Billings, MT

Home | Current Version | Previous Version | Text Only | Print | Product List | Glossary Off
Versions: 1 2 3 4 5 6 7 8 9 10 11 12

000
FTUS45 KBYZ 171720
TAFMLS
TAF
KMLS 171720Z 1718/1818 34008KT P6SM SCT070
     FM180300 03012KT P6SM VCTS SCT120CB BKN200
     FM181300 07008KT P6SM SCT035=

USA.gov is the U.S. government's official web portal to all federal, state and local government web resources and services.